Impacts TAF Board
For situational awareness. Not to be used for flight planning purposes.
IDs:

KPDX - Portland Intl Arpt, OR, US

Issued at 1132 UTC 25 Nov 2020
Updated at 1337 UTC 25 Nov 2020
Potential Impact None Slight Moderate High
Time1253Z 25/14Z 25/15Z 25/16Z 25/17Z 25/18Z 25/19Z 25/20Z 25/21Z 25/22Z 25/23Z 26/00Z 26/01Z 26/02Z>>
Type OBS PRVL
  [TEMP]  
PRVL
  [TEMP]  
PRVL
  [TEMP]  
PRVL
  [TEMP]  
PRVL PRVL PRVL PRVL PRVL PRVL PRVL PRVL PRVL
VIS 10 >6 >6 >6 >6 >6 >6 >6 >6 >6 >6 >6 >6 >6
CIG 45 35
  [20]  
35
  [20]  
35
  [20]  
35
  [20]  
35 35 40 40 40 40 40 40 40
Cover OVC OVC
  [BKN]  
OVC
  [BKN]  
OVC
  [BKN]  
OVC
  [BKN]  
OVC OVC BKN BKN BKN BKN BKN BKN BKN
FltCat VFR VFR
  [MVFR]  
VFR
  [MVFR]  
VFR
  [MVFR]  
VFR
  [MVFR]  
VFR VFR VFR VFR VFR VFR VFR VFR VFR
WX -- -SHRA
  [--]  
-SHRA
  [--]  
-SHRA
  [--]  
-SHRA
  [--]  
-SHRA -SHRA -SHRA -SHGS -SHRA -SHGS -SHRA -SHGS -SHRA -SHGS -SHRA -SHGS -SHRA -SHGS -SHRA -SHGS
WDir 200 190
[190]
190
[190]
190
[190]
190
[190]
190 190 220 220 220 220 220 220 220
WSpd 7 7
  [7]  
7
  [7]  
7
  [7]  
7
  [7]  
7 7 8 8 8 8 8 8 8
WGst -- --
  [--]  
--
  [--]  
--
  [--]  
--
  [--]  
-- -- -- -- -- -- -- -- --
Raw TAF
KPDX 251132Z 2512/2612 16003KT P6SM -SHRA SCT020 BKN045 OVC070
  FM251400 19007KT P6SM -SHRA SCT020 BKN035 OVC060
  TEMPO 2514/2518 BKN020 BKN035
  FM252000 22008KT P6SM -SHRAGS SCT025 BKN040 BKN060
  FM260300 25005KT P6SM VCSH SCT025 BKN045
  FM260800 VRB03KT 5SM BR SCT004 BKN045


Raw METAR
KPDX 251253Z 20007KT 10SM FEW009 BKN045 OVC055 07/05 A3006 RMK AO2 SLP178 T00670050
KPDX 251153Z 13005KT 10SM FEW009 BKN042 OVC080 06/04 A3005 RMK AO2 SLP176 60000 70030 T00610044 10072 20050 52004
KPDX 251138Z 12005KT 10SM FEW009 BKN042 OVC080 06/04 A3006 RMK AO2 T00560044
KPDX 251053Z 16003KT 10SM BKN065 BKN085 06/04 A3006 RMK AO2 SLP178 T00560039

METAR Board
Radar Display
Forecast Discussion
For situational awareness. Not to be used for flight planning purposes.